createdAt,value
2018-12-11T00:01:33.243Z,3.50
2018-12-11T00:04:04.506Z,3.87
2018-12-11T00:06:34.462Z,3.60
2018-12-11T00:09:06.685Z,3.30
2018-12-11T00:11:45.663Z,3.60
2018-12-11T00:14:17.750Z,3.57
2018-12-11T00:16:49.571Z,3.93
2018-12-11T00:19:28.164Z,3.43
2018-12-11T00:22:05.998Z,3.77
2018-12-11T00:24:38.095Z,3.87
2018-12-11T00:27:17.722Z,4.33
2018-12-11T00:29:50.133Z,4.87
2018-12-11T00:32:31.443Z,3.97
2018-12-11T00:35:03.118Z,4.27
2018-12-11T00:37:40.907Z,4.43
2018-12-11T00:40:19.057Z,4.97
2018-12-11T00:42:57.136Z,4.50
2018-12-11T00:45:28.397Z,5.27
2018-12-11T00:48:07.918Z,4.47
2018-12-11T00:50:46.976Z,4.50
2018-12-11T00:53:26.098Z,4.50
2018-12-11T00:56:04.918Z,4.13
2018-12-11T00:58:43.722Z,5.03
2018-12-11T01:01:15.048Z,4.43
2018-12-11T01:03:46.177Z,3.87
2018-12-11T01:06:25.204Z,4.20
2018-12-11T01:11:57.735Z,3.63
2018-12-11T01:14:29.129Z,3.70
2018-12-11T01:17:07.681Z,3.87
2018-12-11T01:19:45.552Z,3.73
2018-12-11T01:22:24.226Z,4.20
2018-12-11T01:24:58.085Z,3.93
2018-12-11T01:27:29.226Z,3.50
2018-12-11T01:30:07.904Z,3.80
2018-12-11T01:32:39.934Z,3.93
2018-12-11T01:35:11.670Z,3.70
2018-12-11T01:37:49.466Z,3.60
2018-12-11T01:40:20.623Z,3.93
2018-12-11T01:42:59.101Z,4.00
2018-12-11T01:45:30.366Z,3.47
2018-12-11T01:48:01.630Z,3.47
2018-12-11T01:50:39.474Z,3.57
2018-12-11T01:53:17.476Z,4.57
2018-12-11T01:55:48.591Z,3.50
2018-12-11T01:58:27.262Z,3.67
2018-12-11T02:00:57.409Z,4.43
2018-12-11T02:03:29.774Z,5.23
2018-12-11T02:06:08.410Z,6.93
2018-12-11T02:08:39.439Z,7.80
2018-12-11T02:11:18.966Z,7.33
2018-12-11T02:13:53.001Z,7.67
2018-12-11T02:16:30.966Z,7.20
2018-12-11T02:19:05.025Z,5.60
2018-12-11T02:21:43.826Z,5.40
2018-12-11T02:24:16.834Z,4.90
2018-12-11T02:26:56.545Z,5.27
2018-12-11T02:29:35.460Z,5.53
2018-12-11T02:32:13.375Z,5.27
2018-12-11T02:34:44.514Z,5.33
2018-12-11T02:37:19.434Z,5.93
2018-12-11T02:39:51.340Z,5.03
2018-12-11T02:42:21.156Z,5.53
2018-12-11T02:44:54.165Z,5.33
2018-12-11T02:47:32.595Z,4.90
2018-12-11T02:50:11.436Z,5.50
2018-12-11T02:52:51.374Z,4.63
2018-12-11T02:55:23.106Z,5.63
2018-12-11T02:57:59.815Z,4.10
2018-12-11T03:00:32.284Z,4.10
2018-12-11T03:03:10.928Z,4.03
2018-12-11T03:05:44.925Z,5.13
2018-12-11T03:08:16.071Z,4.57
2018-12-11T03:10:51.132Z,5.73
2018-12-11T03:13:25.194Z,5.97
2018-12-11T03:16:03.009Z,6.33
2018-12-11T03:18:34.031Z,6.83
2018-12-11T03:21:05.153Z,6.60
2018-12-11T03:23:42.967Z,7.23
2018-12-11T03:26:20.868Z,6.40
2018-12-11T03:28:58.604Z,6.27
2018-12-11T03:31:37.324Z,6.07
2018-12-11T03:34:16.420Z,4.67
2018-12-11T03:36:54.289Z,4.30
2018-12-11T03:39:34.757Z,3.87
2018-12-11T03:42:13.059Z,3.27
2018-12-11T03:44:44.391Z,3.50
2018-12-11T03:47:18.301Z,4.40
2018-12-11T03:49:59.089Z,4.93
2018-12-11T03:52:30.562Z,4.90
2018-12-11T03:55:03.648Z,5.63
2018-12-11T03:57:41.910Z,5.00
2018-12-11T04:00:19.746Z,6.40
2018-12-11T04:02:59.544Z,6.00
2018-12-11T04:05:32.778Z,5.00
2018-12-11T04:08:11.363Z,5.90
2018-12-11T04:10:47.323Z,4.70
2018-12-11T04:13:17.260Z,4.60
2018-12-11T04:15:51.727Z,4.07
2018-12-11T04:18:30.576Z,3.93
2018-12-11T04:21:02.674Z,3.90
2018-12-11T04:23:42.578Z,3.67
2018-12-11T04:26:20.529Z,3.30
2018-12-11T04:28:51.731Z,3.67
2018-12-11T04:31:26.492Z,4.00
2018-12-11T04:34:00.427Z,3.70
2018-12-11T04:36:31.476Z,3.90
2018-12-11T04:39:09.842Z,3.87
2018-12-11T04:41:41.132Z,3.93
2018-12-11T04:44:12.987Z,4.20
2018-12-11T04:46:43.982Z,4.77
2018-12-11T04:49:23.514Z,4.47
2018-12-11T04:51:59.693Z,4.37
2018-12-11T04:54:31.978Z,3.67
2018-12-11T04:57:17.372Z,6.17
2018-12-11T04:59:59.389Z,5.60
2018-12-11T05:02:39.860Z,5.40
2018-12-11T05:05:10.620Z,4.67
2018-12-11T05:10:55.905Z,4.40
2018-12-11T05:13:35.550Z,4.37
2018-12-11T05:16:14.290Z,4.50
2018-12-11T05:18:52.170Z,4.37
2018-12-11T05:21:31.200Z,4.00
2018-12-11T05:24:03.529Z,5.30
2018-12-11T05:26:37.534Z,4.60
2018-12-11T05:29:15.480Z,6.63
2018-12-11T05:31:54.620Z,6.50
2018-12-11T05:34:30.252Z,7.07
2018-12-11T05:37:09.362Z,5.63
2018-12-11T05:39:49.268Z,6.00
2018-12-11T05:42:25.459Z,6.90
2018-12-11T05:44:56.496Z,6.67
2018-12-11T05:47:36.257Z,6.13
2018-12-11T05:50:14.294Z,6.43
2018-12-11T05:52:52.551Z,4.90
2018-12-11T05:55:28.408Z,5.70
2018-12-11T05:58:00.395Z,5.80
2018-12-11T06:00:41.028Z,7.80
2018-12-11T06:03:20.130Z,8.43
2018-12-11T06:05:58.350Z,7.70
2018-12-11T06:08:30.763Z,7.40
2018-12-11T06:11:01.719Z,6.93
2018-12-11T06:13:40.466Z,6.10
2018-12-11T06:16:19.565Z,6.83
2018-12-11T06:18:59.127Z,4.67
2018-12-11T06:21:32.724Z,4.70
2018-12-11T06:24:05.652Z,4.57
2018-12-11T06:26:44.778Z,3.87
2018-12-11T06:32:10.242Z,3.90
2018-12-11T06:34:50.044Z,4.17
2018-12-11T06:37:39.210Z,4.30
2018-12-11T06:40:12.446Z,4.90
2018-12-11T06:42:52.834Z,4.53
2018-12-11T06:45:25.570Z,4.10
2018-12-11T06:47:58.382Z,4.87
2018-12-11T06:50:36.873Z,3.87
2018-12-11T06:53:09.740Z,3.57
2018-12-11T06:55:42.034Z,4.00
2018-12-11T06:58:20.678Z,3.60
2018-12-11T07:00:58.413Z,2.63
2018-12-11T07:03:29.671Z,3.40
2018-12-11T07:06:03.469Z,3.00
2018-12-11T07:08:41.577Z,2.63
2018-12-11T07:11:12.988Z,2.97
2018-12-11T07:13:46.909Z,2.90
2018-12-11T07:16:26.182Z,2.50
2018-12-11T07:19:05.284Z,2.77
2018-12-11T07:21:45.270Z,2.50
2018-12-11T07:24:24.196Z,2.30
2018-12-11T07:26:59.945Z,2.50
2018-12-11T07:29:30.923Z,2.50
2018-12-11T07:32:08.697Z,2.33
2018-12-11T07:34:47.498Z,3.00
2018-12-11T07:37:20.722Z,3.20
2018-12-11T07:40:06.926Z,3.23
2018-12-11T07:42:47.457Z,2.70
2018-12-11T07:45:25.446Z,2.63
2018-12-11T07:47:58.663Z,3.03
2018-12-11T07:50:36.543Z,3.43
2018-12-11T07:53:08.757Z,3.20
2018-12-11T07:55:41.518Z,3.60
2018-12-11T07:58:27.814Z,3.33
2018-12-11T08:01:01.992Z,4.13
2018-12-11T08:03:33.172Z,3.30
2018-12-11T08:08:58.635Z,3.40
2018-12-11T08:11:36.386Z,3.77
2018-12-11T08:14:07.797Z,4.57
2018-12-11T08:16:53.706Z,4.13
2018-12-11T08:19:24.982Z,3.73
2018-12-11T08:22:03.488Z,5.20
2018-12-11T08:24:41.590Z,4.70
2018-12-11T08:27:14.193Z,3.60
2018-12-11T08:32:46.861Z,3.37
2018-12-11T08:35:19.178Z,3.57
2018-12-11T08:38:00.446Z,3.10
2018-12-11T08:40:33.320Z,3.13
2018-12-11T08:43:06.230Z,2.70
2018-12-11T08:45:38.599Z,2.97
2018-12-11T08:48:08.546Z,2.97
2018-12-11T08:50:46.491Z,3.07
2018-12-11T08:53:25.466Z,2.70
2018-12-11T08:55:56.709Z,3.10
2018-12-11T08:58:36.290Z,3.47
2018-12-11T09:01:10.335Z,3.60
2018-12-11T09:03:45.126Z,4.37
2018-12-11T09:06:24.597Z,4.13
2018-12-11T09:09:04.538Z,3.77
2018-12-11T09:11:38.451Z,6.50
2018-12-11T09:14:10.434Z,4.27
2018-12-11T09:16:49.327Z,3.97
2018-12-11T09:19:20.587Z,3.30
2018-12-11T09:22:06.795Z,3.20
2018-12-11T09:24:42.220Z,3.03
2018-12-11T09:27:27.595Z,2.83
2018-12-11T09:30:06.835Z,2.70
2018-12-11T09:32:44.598Z,2.90
2018-12-11T09:35:15.869Z,2.63
2018-12-11T09:37:54.482Z,3.03
2018-12-11T09:40:32.492Z,3.20
2018-12-11T09:43:03.921Z,2.30
2018-12-11T09:45:35.161Z,2.37
2018-12-11T09:48:15.042Z,2.40
2018-12-11T09:50:54.058Z,2.47
2018-12-11T09:53:32.287Z,2.37
2018-12-11T09:56:12.412Z,2.50
2018-12-11T09:58:50.204Z,2.40
2018-12-11T10:01:28.211Z,2.97
2018-12-11T10:03:59.642Z,2.70
2018-12-11T10:06:38.400Z,2.60
2018-12-11T10:09:12.234Z,2.83
2018-12-11T10:11:51.034Z,2.70
2018-12-11T10:14:23.330Z,3.03
2018-12-11T10:17:02.099Z,2.67
2018-12-11T10:19:41.162Z,2.80
2018-12-11T10:22:12.402Z,3.20
2018-12-11T10:24:43.550Z,3.07
2018-12-11T10:27:14.511Z,2.73
2018-12-11T10:29:58.979Z,3.03
2018-12-11T10:32:37.112Z,2.60
2018-12-11T10:35:11.307Z,2.57
2018-12-11T10:37:50.075Z,2.70
2018-12-11T10:40:23.968Z,3.27
2018-12-11T10:42:55.202Z,2.40
2018-12-11T10:45:27.145Z,2.10
2018-12-11T10:47:57.054Z,2.77
2018-12-11T10:50:29.531Z,2.40
2018-12-11T10:53:01.922Z,1.97
2018-12-11T10:55:33.656Z,2.30
2018-12-11T10:58:05.974Z,2.00
2018-12-11T11:00:43.933Z,1.80
2018-12-11T11:03:22.020Z,2.07
2018-12-11T11:05:54.616Z,1.80
2018-12-11T11:08:25.794Z,2.10
2018-12-11T11:11:04.902Z,2.67
2018-12-11T11:13:42.982Z,2.50
2018-12-11T11:16:20.988Z,2.40
2018-12-11T11:18:53.270Z,3.60
2018-12-11T11:24:19.522Z,2.03
2018-12-11T11:26:59.160Z,2.00
2018-12-11T11:29:39.080Z,2.80
2018-12-11T11:32:18.014Z,2.97
2018-12-11T11:34:58.721Z,3.63
2018-12-11T11:37:29.424Z,4.03
2018-12-11T11:40:03.108Z,3.40
2018-12-11T11:42:32.876Z,3.20
2018-12-11T11:45:05.024Z,6.83
2018-12-11T11:47:43.607Z,3.50
2018-12-11T11:50:17.153Z,3.70
2018-12-11T11:52:56.945Z,3.43
2018-12-11T11:55:29.150Z,3.07
2018-12-11T11:58:09.775Z,3.17
2018-12-11T12:00:49.430Z,2.90
2018-12-11T12:03:27.142Z,4.60
2018-12-11T12:05:59.445Z,4.10
2018-12-11T12:08:44.100Z,2.70
2018-12-11T12:11:13.812Z,2.80
2018-12-11T12:13:52.699Z,3.10
2018-12-11T12:16:26.789Z,3.03
2018-12-11T12:18:58.134Z,2.60
2018-12-11T12:21:35.868Z,3.10
2018-12-11T12:24:14.975Z,3.20
2018-12-11T12:26:54.083Z,3.03
2018-12-11T12:29:33.050Z,3.23
2018-12-11T12:32:07.992Z,3.00
2018-12-11T12:34:40.086Z,3.53
2018-12-11T12:37:09.808Z,3.10
2018-12-11T12:39:48.698Z,3.10
2018-12-11T12:42:27.706Z,3.53
2018-12-11T12:45:02.755Z,3.50
2018-12-11T12:47:33.874Z,3.37
2018-12-11T12:50:07.782Z,2.93
2018-12-11T12:52:44.466Z,3.37
2018-12-11T12:55:22.668Z,4.50
2018-12-11T12:58:00.412Z,3.03
2018-12-11T13:00:31.663Z,2.97
2018-12-11T13:03:02.902Z,3.00
2018-12-11T13:05:34.091Z,3.33
2018-12-11T13:08:14.687Z,2.70
2018-12-11T13:10:47.105Z,3.17
2018-12-11T13:13:26.187Z,3.00
2018-12-11T13:16:05.138Z,3.20
2018-12-11T13:18:43.106Z,2.17
2018-12-11T13:21:22.144Z,2.47
2018-12-11T13:23:53.283Z,2.80
2018-12-11T13:26:25.404Z,2.70
2018-12-11T13:29:03.087Z,2.70
2018-12-11T13:31:32.621Z,3.27
2018-12-11T13:34:04.472Z,2.80
2018-12-11T13:36:42.250Z,3.13
2018-12-11T13:39:20.667Z,2.50
2018-12-11T13:41:58.636Z,2.40
2018-12-11T13:44:37.368Z,2.73
2018-12-11T13:47:16.264Z,2.83
2018-12-11T13:49:55.529Z,3.00
2018-12-11T13:52:27.621Z,2.40
2018-12-11T13:54:58.668Z,2.93
2018-12-11T13:57:29.612Z,2.50
2018-12-11T14:00:07.650Z,2.50
2018-12-11T14:02:41.785Z,2.70
2018-12-11T14:05:11.811Z,2.20
2018-12-11T14:07:46.638Z,2.57
2018-12-11T14:10:20.546Z,2.50
2018-12-11T14:12:51.614Z,2.20
2018-12-11T14:15:24.579Z,3.13
2018-12-11T14:18:03.391Z,2.70
2018-12-11T14:20:34.729Z,2.70
2018-12-11T14:23:14.693Z,2.40
2018-12-11T14:25:46.893Z,2.40
2018-12-11T14:28:17.815Z,2.50
2018-12-11T14:30:59.429Z,2.40
2018-12-11T14:33:38.604Z,2.30
2018-12-11T14:36:17.530Z,2.20
2018-12-11T14:38:51.553Z,2.40
2018-12-11T14:41:22.901Z,2.40
2018-12-11T14:44:01.882Z,2.27
2018-12-11T14:46:40.750Z,2.47
2018-12-11T14:49:19.512Z,2.40
2018-12-11T14:51:49.052Z,2.40
2018-12-11T14:54:21.302Z,2.47
2018-12-11T14:56:52.351Z,2.80
2018-12-11T14:59:32.046Z,2.33
2018-12-11T15:02:11.777Z,2.27
2018-12-11T15:04:44.184Z,2.23
2018-12-11T15:07:23.430Z,2.00
2018-12-11T15:10:00.179Z,2.00
2018-12-11T15:12:31.220Z,2.20
2018-12-11T15:15:06.779Z,2.07
2018-12-11T15:17:40.821Z,2.63
2018-12-11T15:20:20.200Z,2.43
2018-12-11T15:22:52.617Z,2.67
2018-12-11T15:25:23.698Z,2.50
2018-12-11T15:28:02.342Z,2.20
2018-12-11T15:30:34.941Z,3.00
2018-12-11T15:33:08.769Z,2.37
2018-12-11T15:35:40.850Z,2.67
2018-12-11T15:38:19.611Z,2.50
2018-12-11T15:40:58.650Z,2.63
2018-12-11T15:46:26.218Z,1.97
2018-12-11T15:49:05.057Z,2.10
2018-12-11T15:51:37.325Z,2.10
2018-12-11T15:54:08.026Z,2.27
2018-12-11T15:56:39.203Z,2.37
2018-12-11T15:59:10.158Z,2.43
2018-12-11T16:01:42.044Z,2.20
2018-12-11T16:04:13.968Z,2.17
2018-12-11T16:06:52.888Z,2.27
2018-12-11T16:09:37.111Z,2.07
2018-12-11T16:12:07.708Z,2.27
2018-12-11T16:14:38.626Z,2.60
2018-12-11T16:17:11.629Z,2.07
2018-12-11T16:19:51.022Z,2.50
2018-12-11T16:22:23.320Z,3.07
2018-12-11T16:25:02.140Z,2.90
2018-12-11T16:27:37.284Z,3.23
2018-12-11T16:30:16.950Z,2.90
2018-12-11T16:32:56.598Z,3.63
2018-12-11T16:35:30.016Z,2.70
2018-12-11T16:38:02.748Z,2.87
2018-12-11T16:40:42.480Z,5.23
2018-12-11T16:43:20.305Z,4.20
2018-12-11T16:45:52.906Z,4.30
2018-12-11T16:48:31.972Z,4.40
2018-12-11T16:51:04.474Z,3.40
2018-12-11T16:53:43.390Z,3.70
2018-12-11T16:56:17.672Z,3.03
2018-12-11T16:58:49.814Z,3.10
2018-12-11T17:01:30.437Z,4.67
2018-12-11T17:04:03.806Z,3.30
2018-12-11T17:06:34.482Z,2.93
2018-12-11T17:09:13.838Z,3.27
2018-12-11T17:11:45.428Z,3.10
2018-12-11T17:14:18.400Z,3.53
2018-12-11T17:16:54.081Z,3.33
2018-12-11T17:19:27.215Z,3.50
2018-12-11T17:21:59.374Z,6.00
2018-12-11T17:24:40.348Z,4.87
2018-12-11T17:30:12.311Z,5.33
2018-12-11T17:35:37.374Z,4.37
2018-12-11T17:38:15.096Z,3.90
2018-12-11T17:40:50.188Z,3.70
2018-12-11T17:43:29.282Z,4.30
2018-12-11T17:46:06.092Z,3.73
2018-12-11T17:48:46.705Z,3.33
2018-12-11T17:51:25.568Z,3.70
2018-12-11T17:53:59.636Z,3.23
2018-12-11T17:56:38.733Z,5.50
2018-12-11T17:59:11.245Z,3.23
2018-12-11T18:01:57.738Z,4.37
2018-12-11T18:04:31.206Z,5.90
2018-12-11T18:07:10.774Z,3.50
2018-12-11T18:09:49.326Z,4.10
2018-12-11T18:12:20.433Z,4.00
2018-12-11T18:14:54.220Z,5.53
2018-12-11T18:17:34.143Z,3.97
2018-12-11T18:20:10.004Z,4.60
2018-12-11T18:22:45.774Z,4.80
2018-12-11T18:25:24.474Z,3.80
2018-12-11T18:28:02.352Z,4.20
2018-12-11T18:30:34.540Z,4.03
2018-12-11T18:33:11.341Z,4.00
2018-12-11T18:35:46.228Z,3.80
2018-12-11T18:38:19.660Z,4.53
2018-12-11T18:40:58.428Z,4.03
2018-12-11T18:43:44.062Z,3.80
2018-12-11T18:46:29.946Z,4.80
2018-12-11T18:49:09.464Z,4.23
2018-12-11T18:51:49.525Z,4.40
2018-12-11T18:54:22.839Z,5.37
2018-12-11T18:57:10.620Z,4.53
2018-12-11T18:59:42.877Z,4.50
2018-12-11T19:02:30.424Z,5.30
2018-12-11T19:05:03.764Z,5.07
2018-12-11T19:07:42.985Z,4.80
2018-12-11T19:10:15.447Z,3.83
2018-12-11T19:12:49.992Z,4.70
2018-12-11T19:15:25.674Z,4.33
2018-12-11T19:18:04.519Z,4.70
2018-12-11T19:20:39.409Z,4.93
2018-12-11T19:23:16.190Z,4.43
2018-12-11T19:25:48.564Z,4.57
2018-12-11T19:28:19.418Z,3.87
2018-12-11T19:30:59.225Z,5.00
2018-12-11T19:33:31.406Z,4.93
2018-12-11T19:36:04.702Z,4.70
2018-12-11T19:38:44.033Z,4.40
2018-12-11T19:41:23.057Z,4.63
2018-12-11T19:43:57.944Z,4.63
2018-12-11T19:46:30.994Z,4.07
2018-12-11T19:49:17.273Z,4.10
2018-12-11T19:51:50.073Z,4.87
2018-12-11T19:54:22.264Z,4.50
2018-12-11T19:57:01.859Z,4.87
2018-12-11T19:59:36.840Z,4.37
2018-12-11T20:02:16.584Z,5.83
2018-12-11T20:04:47.816Z,4.70
2018-12-11T20:07:27.563Z,4.53
2018-12-11T20:10:15.742Z,4.87
2018-12-11T20:13:04.375Z,4.50
2018-12-11T20:15:37.311Z,4.37
2018-12-11T20:18:12.845Z,4.90
2018-12-11T20:20:50.438Z,5.40
2018-12-11T20:23:28.741Z,4.67
2018-12-11T20:26:01.294Z,4.77
2018-12-11T20:28:39.948Z,4.73
2018-12-11T20:31:30.926Z,4.57
2018-12-11T20:34:09.824Z,4.73
2018-12-11T20:36:45.882Z,4.50
2018-12-11T20:42:18.489Z,4.97
2018-12-11T20:44:57.862Z,4.47
2018-12-11T20:47:36.720Z,5.30
2018-12-11T20:50:12.034Z,4.70
2018-12-11T20:52:46.688Z,4.97
2018-12-11T20:55:19.212Z,5.30
2018-12-11T20:57:57.872Z,5.60
2018-12-11T21:00:29.870Z,5.17
2018-12-11T21:03:00.069Z,4.93
2018-12-11T21:05:32.020Z,4.40
2018-12-11T21:08:03.920Z,4.77
2018-12-11T21:10:33.798Z,5.10
2018-12-11T21:13:12.239Z,4.70
2018-12-11T21:15:43.602Z,4.10
2018-12-11T21:18:21.347Z,4.87
2018-12-11T21:20:52.547Z,4.87
2018-12-11T21:23:31.006Z,5.10
2018-12-11T21:26:02.440Z,5.20
2018-12-11T21:28:42.230Z,4.93
2018-12-11T21:31:14.717Z,4.93
2018-12-11T21:33:45.744Z,5.07
2018-12-11T21:36:32.695Z,4.37
2018-12-11T21:39:12.368Z,4.73
2018-12-11T21:41:50.167Z,5.20
2018-12-11T21:44:23.755Z,4.70
2018-12-11T21:47:03.633Z,5.20
2018-12-11T21:49:41.442Z,4.77
2018-12-11T21:52:20.070Z,4.77
2018-12-11T21:54:54.993Z,5.03
2018-12-11T21:57:27.204Z,4.67
2018-12-11T22:00:07.086Z,4.50
2018-12-11T22:02:39.529Z,4.77
2018-12-11T22:05:12.283Z,4.47
2018-12-11T22:07:45.325Z,4.70
2018-12-11T22:10:33.771Z,5.27
2018-12-11T22:13:11.649Z,4.97
2018-12-11T22:15:43.846Z,4.97
2018-12-11T22:18:22.728Z,5.40
2018-12-11T22:21:02.656Z,5.00
2018-12-11T22:23:35.786Z,4.80
2018-12-11T22:26:06.797Z,5.83
2018-12-11T22:28:38.667Z,5.07
2018-12-11T22:31:09.290Z,5.10
2018-12-11T22:33:48.105Z,4.87
2018-12-11T22:36:19.267Z,5.00
2018-12-11T22:38:57.282Z,4.57
2018-12-11T22:41:42.830Z,5.33
2018-12-11T22:44:16.554Z,4.60
2018-12-11T22:46:53.103Z,5.00
2018-12-11T22:49:23.677Z,4.70
2018-12-11T22:52:03.771Z,4.93
2018-12-11T22:54:50.200Z,5.63
2018-12-11T22:57:36.128Z,4.40
2018-12-11T23:00:15.399Z,5.10
2018-12-11T23:02:47.898Z,5.00
2018-12-11T23:05:21.830Z,4.90
2018-12-11T23:10:56.019Z,4.93
2018-12-11T23:13:34.281Z,5.20
2018-12-11T23:16:07.046Z,4.67
2018-12-11T23:18:45.916Z,5.00
2018-12-11T23:21:18.034Z,5.23
2018-12-11T23:23:57.664Z,5.30
2018-12-11T23:26:28.629Z,5.53
2018-12-11T23:29:00.787Z,5.10
2018-12-11T23:31:31.599Z,4.90
2018-12-11T23:34:05.661Z,5.33
2018-12-11T23:36:45.115Z,4.87
2018-12-11T23:39:17.452Z,5.47
2018-12-11T23:41:48.575Z,5.57
2018-12-11T23:44:27.894Z,5.40
2018-12-11T23:46:59.228Z,5.03
2018-12-11T23:49:37.748Z,5.50
2018-12-11T23:52:09.150Z,5.23
2018-12-11T23:54:40.168Z,5.50
2018-12-11T23:57:12.098Z,5.53
2018-12-11T23:59:50.050Z,5.40
